Time;durP1;ratioP1;P1;durP2;ratioP2;P2;SDS_P1;SDS_P2;PMS_P1;PMS_P2;Temp;Humidity;BMP_temperature;BMP_pressure;BME280_temperature;BME280_humidity;BME280_pressure;Samples;Min_cycle;Max_cycle;Signal;HPM_P1;HPM_P2
2021/01/14 00:00:33;;;;;;;26.43;13.37;;;5.90;85.30;;;;;;5038374;28;20128;-76
2021/01/14 00:03:08;;;;;;;28.10;15.83;;;6.00;85.70;;;;;;5038367;28;20056;-77
2021/01/14 00:05:34;;;;;;;24.30;12.63;;;6.10;86.00;;;;;;5038224;28;20075;-76
2021/01/14 00:08:00;;;;;;;29.87;15.07;;;6.00;85.50;;;;;;5021876;28;20488;-79
2021/01/14 00:10:25;;;;;;;31.00;11.87;;;6.10;85.60;;;;;;5047044;28;20440;-76
2021/01/14 00:12:51;;;;;;;29.87;14.67;;;6.00;85.50;;;;;;5039451;28;20040;-77
2021/01/14 00:15:17;;;;;;;24.57;12.00;;;6.10;85.60;;;;;;5037969;28;20021;-77
2021/01/14 00:17:45;;;;;;;21.53;9.30;;;6.00;85.50;;;;;;5001103;28;20034;-76
2021/01/14 00:20:15;;;;;;;34.90;16.63;;;6.00;85.20;;;;;;5017334;28;20486;-77
2021/01/14 00:22:41;;;;;;;28.80;15.27;;;6.00;85.40;;;;;;5033757;28;20038;-79
2021/01/14 00:25:08;;;;;;;35.57;16.60;;;6.10;85.90;;;;;;5038965;28;20029;-75
2021/01/14 00:27:34;;;;;;;29.17;15.47;;;6.20;85.70;;;;;;5033601;28;20065;-76
2021/01/14 00:30:00;;;;;;;34.43;16.40;;;6.20;85.70;;;;;;5036838;28;20055;-79
2021/01/14 00:32:25;;;;;;;30.17;15.03;;;6.20;85.50;;;;;;5051597;28;20025;-76
2021/01/14 00:34:51;;;;;;;32.30;14.57;;;6.20;85.20;;;;;;5055205;28;20482;-76
2021/01/14 00:40:02;;;;;;;20.83;10.60;;;6.20;83.90;;;;;;5026014;28;20114;-81
2021/01/14 00:42:28;;;;;;;17.27;8.60;;;6.20;82.60;;;;;;5019262;28;20523;-76
2021/01/14 00:44:53;;;;;;;24.10;10.70;;;6.00;81.70;;;;;;5018289;28;20029;-77
2021/01/14 00:47:19;;;;;;;19.60;9.27;;;5.90;81.70;;;;;;5020253;28;20055;-77
2021/01/14 00:49:45;;;;;;;17.50;6.97;;;5.90;81.40;;;;;;5015133;28;20029;-76
2021/01/14 00:52:11;;;;;;;29.63;12.60;;;5.80;81.50;;;;;;5036565;28;20079;-76
2021/01/14 00:54:40;;;;;;;31.10;14.83;;;5.80;81.30;;;;;;5003756;28;20017;-76
2021/01/14 00:57:09;;;;;;;30.77;14.47;;;5.90;81.90;;;;;;5051531;28;20417;-77
2021/01/14 00:59:38;;;;;;;21.80;11.07;;;6.00;82.00;;;;;;5054609;28;20037;-76
2021/01/14 01:02:05;;;;;;;28.40;15.10;;;6.00;82.00;;;;;;5019581;28;20113;-77
2021/01/14 01:04:31;;;;;;;35.10;14.67;;;6.00;82.10;;;;;;5035679;28;20118;-76
2021/01/14 01:06:57;;;;;;;17.03;7.50;;;6.10;82.10;;;;;;5048430;28;20461;-76
2021/01/14 01:09:23;;;;;;;23.83;11.40;;;6.00;80.90;;;;;;5029497;28;20116;-76
2021/01/14 01:11:49;;;;;;;31.67;15.47;;;6.00;80.70;;;;;;5045313;28;20112;-76
2021/01/14 01:14:15;;;;;;;23.43;8.03;;;5.90;81.10;;;;;;5037934;28;20029;-76
2021/01/14 01:16:40;;;;;;;24.60;10.47;;;5.80;79.10;;;;;;5061931;28;20040;-76
2021/01/14 01:19:06;;;;;;;32.80;16.20;;;5.90;80.50;;;;;;5034717;28;20442;-78
2021/01/14 01:21:32;;;;;;;22.20;10.90;;;5.90;80.30;;;;;;5034113;28;20398;-77
2021/01/14 01:23:57;;;;;;;22.83;11.33;;;5.90;80.30;;;;;;5017848;28;20029;-76
2021/01/14 01:26:23;;;;;;;31.57;15.03;;;5.80;79.50;;;;;;5050653;28;20104;-76
2021/01/14 01:28:49;;;;;;;32.87;16.07;;;5.80;80.40;;;;;;5002319;28;20040;-76
2021/01/14 01:31:14;;;;;;;25.50;9.87;;;5.80;80.70;;;;;;5035036;28;20048;-75
2021/01/14 01:33:42;;;;;;;35.07;15.10;;;5.90;80.30;;;;;;5019081;28;20048;-75
2021/01/14 01:36:12;;;;;;;27.57;12.20;;;5.90;81.00;;;;;;5014781;28;20033;-82
2021/01/14 01:38:37;;;;;;;22.57;8.53;;;5.90;81.10;;;;;;5033537;28;20033;-76
2021/01/14 01:41:03;;;;;;;27.67;13.83;;;5.80;79.60;;;;;;5015410;28;20087;-78
2021/01/14 01:43:29;;;;;;;30.03;14.03;;;5.70;79.80;;;;;;5007947;28;20468;-77
2021/01/14 01:45:55;;;;;;;31.77;15.47;;;5.70;79.80;;;;;;5042399;28;20041;-74
2021/01/14 01:48:22;;;;;;;34.43;14.07;;;5.70;80.20;;;;;;5041614;28;20039;-75
2021/01/14 01:50:50;;;;;;;31.93;16.07;;;5.80;80.30;;;;;;5041046;28;20483;-77
2021/01/14 01:53:16;;;;;;;27.83;13.43;;;5.80;80.10;;;;;;5038403;28;20025;-76
2021/01/14 01:55:45;;;;;;;23.00;10.83;;;5.80;80.00;;;;;;5037217;28;20441;-77
2021/01/14 01:58:13;;;;;;;30.37;14.17;;;5.80;79.90;;;;;;5035271;28;20460;-83
2021/01/14 02:00:39;;;;;;;26.77;13.03;;;5.90;80.20;;;;;;5036329;28;20028;-76
2021/01/14 02:03:05;;;;;;;25.57;12.00;;;5.80;79.90;;;;;;5019276;28;20029;-76
2021/01/14 02:05:32;;;;;;;32.60;13.23;;;5.80;79.80;;;;;;5053713;28;20017;-77
2021/01/14 02:07:58;;;;;;;28.80;12.43;;;5.80;80.00;;;;;;5035367;28;20131;-76
2021/01/14 02:10:51;;;;;;;29.87;14.63;;;5.90;80.20;;;;;;5052745;28;20064;-75
2021/01/14 02:13:35;;;;;;;29.85;14.25;;;5.90;80.40;;;;;;5035067;28;20415;-77
2021/01/14 02:16:02;;;;;;;21.97;9.67;;;5.90;80.50;;;;;;5062293;28;20032;-76
2021/01/14 02:18:29;;;;;;;27.20;14.07;;;5.90;79.70;;;;;;5037992;28;20044;-77
2021/01/14 02:20:59;;;;;;;31.30;14.87;;;5.90;80.00;;;;;;5054796;28;20060;-75
2021/01/14 02:23:51;;;;;;;21.03;10.90;;;5.90;80.30;;;;;;5042282;28;20052;-77
2021/01/14 02:26:29;;;;;;;23.83;11.17;;;5.90;79.90;;;;;;5034843;28;20496;-77
2021/01/14 02:28:56;;;;;;;20.70;9.57;;;5.90;79.60;;;;;;5035132;28;20041;-77
2021/01/14 02:31:23;;;;;;;21.00;8.60;;;5.90;79.10;;;;;;5018310;28;20443;-76
2021/01/14 02:33:53;;;;;;;18.50;9.90;;;5.80;78.00;;;;;;5018145;28;20025;-77
2021/01/14 02:36:20;;;;;;;17.30;7.57;;;5.80;78.70;;;;;;5033834;28;20033;-75
2021/01/14 02:38:46;;;;;;;21.27;6.87;;;5.70;78.10;;;;;;5052531;28;20488;-75
2021/01/14 02:41:11;;;;;;;16.27;7.27;;;5.60;77.80;;;;;;5034469;28;20037;-75
2021/01/14 02:43:37;;;;;;;22.00;9.97;;;5.60;77.70;;;;;;5052477;28;20055;-77
2021/01/14 02:46:04;;;;;;;19.73;9.17;;;5.60;78.50;;;;;;5053198;28;20455;-75
2021/01/14 02:48:43;;;;;;;18.73;7.40;;;5.60;78.20;;;;;;5001776;28;20079;-78
2021/01/14 02:51:14;;;;;;;20.40;9.23;;;5.70;78.40;;;;;;5034980;28;20025;-76
2021/01/14 02:53:41;;;;;;;16.80;7.33;;;5.70;78.40;;;;;;5052956;28;20021;-78
2021/01/14 02:56:08;;;;;;;16.40;7.20;;;5.80;78.20;;;;;;5034981;28;20040;-76
2021/01/14 02:58:34;;;;;;;14.50;6.73;;;5.70;77.60;;;;;;5018045;28;20028;-77
2021/01/14 03:01:00;;;;;;;16.47;5.80;;;5.70;77.60;;;;;;5020696;28;20036;-75
2021/01/14 03:03:26;;;;;;;17.50;6.40;;;5.70;77.50;;;;;;5051212;28;20033;-78
2021/01/14 03:05:52;;;;;;;17.90;7.17;;;5.70;77.40;;;;;;5014782;28;20044;-75
2021/01/14 03:08:17;;;;;;;17.63;6.50;;;5.70;77.70;;;;;;5014621;28;20033;-79
2021/01/14 03:10:44;;;;;;;16.80;6.47;;;5.70;77.80;;;;;;5009469;28;20063;-76
2021/01/14 03:13:10;;;;;;;9.63;4.70;;;5.70;78.10;;;;;;5053491;28;20025;-75
2021/01/14 03:15:36;;;;;;;15.57;6.70;;;5.70;77.50;;;;;;5017971;28;20545;-74
2021/01/14 03:18:02;;;;;;;16.47;5.90;;;5.70;78.10;;;;;;5035178;28;20448;-74
2021/01/14 03:20:27;;;;;;;11.33;4.00;;;5.70;78.40;;;;;;5001313;28;20116;-76
2021/01/14 03:22:53;;;;;;;14.23;5.00;;;5.70;78.10;;;;;;5034611;28;20053;-77
2021/01/14 03:25:18;;;;;;;13.63;3.57;;;5.70;77.50;;;;;;5051863;28;20117;-75
2021/01/14 03:27:44;;;;;;;12.60;4.07;;;5.60;77.30;;;;;;5017186;28;20048;-76
2021/01/14 03:30:14;;;;;;;11.03;4.10;;;5.60;77.60;;;;;;5033686;28;20029;-75
2021/01/14 03:32:40;;;;;;;11.93;4.00;;;5.60;77.60;;;;;;5054802;28;20115;-76
2021/01/14 03:35:07;;;;;;;7.77;2.80;;;5.60;77.80;;;;;;5021364;28;20033;-76
2021/01/14 03:37:37;;;;;;;7.50;2.77;;;5.50;77.60;;;;;;5055951;28;20025;-75
2021/01/14 03:40:04;;;;;;;12.27;2.30;;;5.50;77.20;;;;;;5056021;28;20108;-76
2021/01/14 03:42:30;;;;;;;11.73;2.87;;;5.40;77.20;;;;;;5021451;28;20060;-77
2021/01/14 03:44:55;;;;;;;9.30;2.97;;;5.40;77.30;;;;;;5021969;28;20067;-76
2021/01/14 03:47:23;;;;;;;12.17;2.70;;;5.40;77.40;;;;;;5021360;28;20053;-76
2021/01/14 03:49:48;;;;;;;12.17;3.00;;;5.30;77.40;;;;;;5037782;28;20074;-76
2021/01/14 03:52:14;;;;;;;11.23;2.80;;;5.30;77.60;;;;;;5038096;28;20029;-76
2021/01/14 03:54:39;;;;;;;7.67;1.73;;;5.30;77.70;;;;;;5036982;28;20033;-76
2021/01/14 03:57:05;;;;;;;8.87;1.83;;;5.30;77.50;;;;;;5037602;28;20033;-76
2021/01/14 03:59:31;;;;;;;9.20;2.53;;;5.20;77.50;;;;;;5020019;28;20029;-76
2021/01/14 04:02:06;;;;;;;11.70;2.90;;;5.20;77.90;;;;;;5037193;28;20032;-76
2021/01/14 04:04:40;;;;;;;10.13;2.77;;;5.30;78.20;;;;;;5001089;28;20029;-76
2021/01/14 04:07:07;;;;;;;7.13;1.90;;;5.30;78.40;;;;;;5035791;28;20036;-75
2021/01/14 04:09:33;;;;;;;7.70;1.90;;;5.30;78.60;;;;;;5022846;28;20040;-76
2021/01/14 04:11:59;;;;;;;12.93;1.90;;;5.20;78.60;;;;;;5037427;28;20029;-76
2021/01/14 04:14:24;;;;;;;10.60;1.97;;;5.20;78.50;;;;;;5037346;28;20369;-76
2021/01/14 04:16:51;;;;;;;9.13;1.57;;;5.20;78.50;;;;;;5004254;28;20468;-76
2021/01/14 04:19:17;;;;;;;9.80;1.77;;;5.20;78.80;;;;;;5037600;28;20546;-76
2021/01/14 04:21:43;;;;;;;7.67;1.60;;;5.20;78.80;;;;;;5037174;28;20029;-76
2021/01/14 04:24:09;;;;;;;10.73;1.13;;;5.20;77.80;;;;;;5037211;28;20048;-76
2021/01/14 04:26:35;;;;;;;8.23;1.53;;;5.10;78.00;;;;;;5021238;28;20021;-76
2021/01/14 04:29:00;;;;;;;9.13;1.87;;;5.20;78.20;;;;;;5020907;28;20043;-75
2021/01/14 04:31:26;;;;;;;11.77;2.03;;;5.20;78.30;;;;;;5037265;28;20033;-76
2021/01/14 04:33:52;;;;;;;9.67;1.47;;;5.20;78.50;;;;;;5036522;28;20096;-76
2021/01/14 04:36:18;;;;;;;7.80;1.57;;;5.20;79.20;;;;;;5020453;28;20017;-76
2021/01/14 04:38:43;;;;;;;11.97;1.67;;;5.20;78.90;;;;;;5036654;28;20041;-76
2021/01/14 04:41:10;;;;;;;8.77;1.33;;;5.20;79.20;;;;;;5054776;28;20427;-75
2021/01/14 04:43:36;;;;;;;7.37;1.17;;;5.30;79.70;;;;;;5003776;28;20033;-77
2021/01/14 04:46:11;;;;;;;6.20;1.10;;;5.30;79.40;;;;;;5054745;28;20170;-76
2021/01/14 04:48:40;;;;;;;11.27;1.33;;;5.40;79.00;;;;;;5020375;28;20037;-78
2021/01/14 04:51:10;;;;;;;5.60;1.23;;;5.30;78.30;;;;;;5036765;28;20178;-75
2021/01/14 04:53:39;;;;;;;9.17;1.30;;;5.30;78.70;;;;;;5020731;28;20409;-75
2021/01/14 04:56:06;;;;;;;8.53;0.90;;;5.30;78.50;;;;;;5036579;28;20102;-75
2021/01/14 04:58:37;;;;;;;6.03;1.23;;;5.30;78.30;;;;;;5020319;28;20043;-79
2021/01/14 05:01:09;;;;;;;6.10;1.23;;;5.30;78.00;;;;;;5054366;28;20028;-75
2021/01/14 05:03:39;;;;;;;10.03;1.10;;;5.30;78.50;;;;;;5036042;28;20457;-80
2021/01/14 05:06:06;;;;;;;4.10;0.83;;;5.30;78.10;;;;;;5036482;28;20110;-76
2021/01/14 05:08:33;;;;;;;6.50;0.90;;;5.20;77.30;;;;;;5036567;28;20037;-75
2021/01/14 05:11:00;;;;;;;5.70;1.10;;;5.20;78.40;;;;;;5054137;28;20091;-76
2021/01/14 05:13:31;;;;;;;6.43;0.90;;;5.20;78.60;;;;;;5054387;28;20545;-75
2021/01/14 05:15:57;;;;;;;10.80;1.30;;;5.30;78.70;;;;;;5036206;28;20104;-75
2021/01/14 05:18:23;;;;;;;6.90;0.67;;;5.20;78.80;;;;;;5036373;28;20040;-76
2021/01/14 05:20:49;;;;;;;7.13;1.07;;;5.30;78.60;;;;;;5036632;28;20036;-76
2021/01/14 05:23:19;;;;;;;5.67;0.97;;;5.30;78.50;;;;;;5036876;28;20493;-74
2021/01/14 05:25:53;;;;;;;6.57;1.10;;;5.30;78.40;;;;;;5020244;28;20049;-74
2021/01/14 05:28:23;;;;;;;3.80;0.83;;;5.20;78.10;;;;;;5037877;28;20132;-75
2021/01/14 05:30:50;;;;;;;7.87;0.97;;;5.20;78.30;;;;;;5036716;28;20025;-74
2021/01/14 05:33:21;;;;;;;6.67;1.17;;;5.20;78.30;;;;;;5020364;28;20480;-75
2021/01/14 05:35:52;;;;;;;10.60;1.30;;;5.20;78.10;;;;;;5053869;28;20472;-76
2021/01/14 05:38:31;;;;;;;5.13;0.70;;;5.20;78.70;;;;;;5035895;28;20025;-75
2021/01/14 05:41:18;;;;;;;9.17;0.80;;;5.10;78.20;;;;;;5038971;28;20064;-77
2021/01/14 05:43:58;;;;;;;6.80;0.60;;;5.10;78.40;;;;;;5042417;28;20032;-76
2021/01/14 05:46:32;;;;;;;7.40;0.83;;;5.10;78.90;;;;;;5062415;28;20021;-76
2021/01/14 05:49:00;;;;;;;4.40;0.80;;;5.10;77.70;;;;;;5060849;28;20037;-77
2021/01/14 05:51:27;;;;;;;10.97;0.80;;;5.00;78.40;;;;;;5036053;28;20057;-76
2021/01/14 05:53:56;;;;;;;7.17;0.67;;;5.00;78.30;;;;;;5018313;28;20033;-78
2021/01/14 05:56:40;;;;;;;7.27;0.50;;;5.10;78.70;;;;;;5053343;28;20551;-76
2021/01/14 05:59:11;;;;;;;10.30;0.83;;;5.10;78.50;;;;;;5053470;28;20033;-75
2021/01/14 06:01:38;;;;;;;5.33;0.60;;;5.10;78.30;;;;;;5053516;28;20025;-75
2021/01/14 06:04:21;;;;;;;6.20;0.90;;;5.10;78.70;;;;;;5018916;28;20025;-74
2021/01/14 06:06:49;;;;;;;9.00;0.70;;;5.10;78.60;;;;;;5035506;28;20025;-75
2021/01/14 06:09:16;;;;;;;8.70;0.80;;;5.10;78.70;;;;;;5035503;28;20032;-75
2021/01/14 06:11:43;;;;;;;7.37;0.73;;;5.10;78.50;;;;;;5035282;28;20055;-81
2021/01/14 06:14:24;;;;;;;8.57;0.60;;;5.00;78.60;;;;;;5035012;28;20508;-77
2021/01/14 06:16:50;;;;;;;5.37;0.67;;;5.00;79.10;;;;;;5052326;28;20021;-79
2021/01/14 06:19:16;;;;;;;7.07;0.67;;;4.90;78.40;;;;;;5053113;28;20029;-74
2021/01/14 06:21:49;;;;;;;6.80;0.60;;;4.90;78.50;;;;;;5035520;28;20083;-76
2021/01/14 06:24:24;;;;;;;5.13;0.50;;;4.90;78.20;;;;;;5019499;28;20094;-75
2021/01/14 06:26:51;;;;;;;4.37;0.50;;;4.80;77.40;;;;;;5036808;28;20028;-75
2021/01/14 06:29:22;;;;;;;7.23;0.50;;;4.80;77.40;;;;;;5053878;28;20029;-76
2021/01/14 06:31:48;;;;;;;4.13;0.50;;;4.60;75.70;;;;;;5035900;28;20037;-76
2021/01/14 06:34:16;;;;;;;8.17;0.80;;;4.40;75.10;;;;;;5036978;28;20047;-76
2021/01/14 06:36:47;;;;;;;5.93;0.67;;;4.30;76.00;;;;;;5035133;28;20170;-75
2021/01/14 06:39:15;;;;;;;6.90;0.70;;;4.30;76.30;;;;;;5034886;28;20116;-74
2021/01/14 06:41:44;;;;;;;5.60;0.60;;;4.10;76.50;;;;;;5035605;28;20040;-74
2021/01/14 06:44:12;;;;;;;5.30;0.50;;;4.10;77.10;;;;;;5035724;28;20068;-76
2021/01/14 06:46:40;;;;;;;8.47;0.93;;;4.10;77.00;;;;;;5053733;28;20036;-76
2021/01/14 06:49:14;;;;;;;7.00;0.60;;;4.10;76.20;;;;;;5052938;28;20025;-75
2021/01/14 06:51:54;;;;;;;7.63;0.60;;;4.00;75.50;;;;;;5015538;28;20026;-76
2021/01/14 06:54:21;;;;;;;4.20;0.80;;;3.80;75.50;;;;;;5015684;28;20547;-75
2021/01/14 06:57:14;;;;;;;6.93;0.77;;;3.60;75.70;;;;;;5005712;28;20029;-80
2021/01/14 06:59:40;;;;;;;8.50;0.60;;;3.50;76.00;;;;;;5035217;28;20033;-76
2021/01/14 07:02:05;;;;;;;5.27;0.80;;;3.50;76.50;;;;;;5018257;28;20024;-76
2021/01/14 07:04:45;;;;;;;10.67;1.00;;;3.40;76.50;;;;;;5035105;28;20025;-75
2021/01/14 07:07:26;;;;;;;6.30;0.70;;;3.40;76.80;;;;;;5056412;28;20076;-77
2021/01/14 07:10:10;;;;;;;6.27;0.60;;;3.40;77.10;;;;;;5039372;28;20075;-76
2021/01/14 07:12:38;;;;;;;8.53;0.70;;;3.40;77.10;;;;;;5056929;28;20033;-76
2021/01/14 07:15:10;;;;;;;5.93;0.63;;;3.40;78.80;;;;;;5038835;28;20060;-77
2021/01/14 07:17:39;;;;;;;8.98;0.70;;;3.70;81.10;;;;;;5057317;28;20074;-77
2021/01/14 07:20:08;;;;;;;7.47;1.10;;;4.00;81.00;;;;;;5056653;28;20018;-77
2021/01/14 07:22:56;;;;;;;4.37;0.80;;;4.20;80.60;;;;;;5038557;28;20045;-76
2021/01/14 07:25:24;;;;;;;6.83;0.60;;;4.40;80.30;;;;;;5055698;28;20036;-77
2021/01/14 07:27:50;;;;;;;9.30;1.10;;;4.40;78.40;;;;;;5020759;28;20040;-81
2021/01/14 07:30:20;;;;;;;9.73;0.70;;;4.40;78.30;;;;;;5036864;28;20029;-77
2021/01/14 07:33:08;;;;;;;9.20;0.90;;;4.50;79.90;;;;;;5037371;28;20029;-76
2021/01/14 07:35:34;;;;;;;9.13;1.03;;;4.70;80.40;;;;;;5020779;28;20037;-77
2021/01/14 07:38:00;;;;;;;9.40;0.80;;;4.70;78.10;;;;;;5034820;28;20036;-79
2021/01/14 07:40:32;;;;;;;6.63;0.60;;;4.60;76.60;;;;;;5019259;28;20021;-76
2021/01/14 07:42:59;;;;;;;5.78;0.77;;;4.60;78.50;;;;;;5037078;28;20021;-76
2021/01/14 07:45:25;;;;;;;7.73;0.60;;;4.70;79.60;;;;;;5037147;28;20044;-77
2021/01/14 07:47:51;;;;;;;9.53;1.00;;;4.90;79.80;;;;;;5054122;28;20036;-76
2021/01/14 07:50:24;;;;;;;6.27;0.60;;;4.80;77.80;;;;;;5054515;28;20468;-76
2021/01/14 07:52:52;;;;;;;5.37;0.60;;;4.80;77.80;;;;;;5037295;28;20044;-77
2021/01/14 07:55:31;;;;;;;4.87;0.80;;;4.80;77.90;;;;;;5036421;28;20024;-76
2021/01/14 07:58:13;;;;;;;10.57;0.93;;;4.60;77.10;;;;;;5047319;28;20562;-80
2021/01/14 08:00:41;;;;;;;5.93;0.90;;;4.40;76.40;;;;;;5054870;28;20027;-77
2021/01/14 08:03:12;;;;;;;8.97;0.70;;;4.20;76.30;;;;;;5019534;28;20358;-75
2021/01/14 08:05:56;;;;;;;8.00;1.10;;;4.10;76.60;;;;;;5052850;28;20053;-77
2021/01/14 08:08:34;;;;;;;7.73;1.20;;;4.10;77.40;;;;;;5053394;28;20041;-77
2021/01/14 08:11:25;;;;;;;7.90;1.10;;;4.00;77.10;;;;;;5052471;28;20025;-77
2021/01/14 08:14:04;;;;;;;11.77;1.60;;;4.00;76.90;;;;;;5032374;28;20013;-75
2021/01/14 08:16:44;;;;;;;11.17;1.30;;;3.80;76.80;;;;;;5035555;28;20025;-76
2021/01/14 08:19:20;;;;;;;11.30;1.30;;;3.90;76.90;;;;;;5033576;28;20033;-77
2021/01/14 08:21:49;;;;;;;8.00;1.07;;;3.80;77.10;;;;;;5033711;28;20025;-78
2021/01/14 08:24:44;;;;;;;13.07;2.23;;;3.60;76.80;;;;;;4982338;28;1014814;-77
2021/01/14 08:27:31;;;;;;;10.03;2.33;;;3.50;77.10;;;;;;5026050;28;20091;-80
2021/01/14 08:30:04;;;;;;;19.97;5.87;;;3.40;77.50;;;;;;5026596;28;20030;-78
2021/01/14 08:32:49;;;;;;;;;;;3.50;78.50;;;;;;5034553;28;20036;-77
2021/01/14 08:35:23;;;;;;;15.43;1.97;;;3.50;77.40;;;;;;5034730;28;19960;-78
2021/01/14 08:37:59;;;;;;;8.33;1.87;;;3.50;77.80;;;;;;5035430;28;20068;-76
2021/01/14 08:40:31;;;;;;;10.93;1.50;;;3.40;77.60;;;;;;5029205;28;20071;-79
2021/01/14 08:43:18;;;;;;;14.97;3.57;;;3.30;76.90;;;;;;5033931;28;20106;-77
2021/01/14 08:45:52;;;;;;;13.77;2.10;;;3.30;77.70;;;;;;5017497;28;20428;-76
2021/01/14 08:48:26;;;;;;;17.77;3.13;;;3.30;77.70;;;;;;5035056;28;20029;-76
2021/01/14 08:50:54;;;;;;;9.77;1.83;;;3.30;77.90;;;;;;5034167;28;20075;-76
2021/01/14 08:53:34;;;;;;;11.80;3.37;;;3.30;77.50;;;;;;5033725;28;20116;-77
2021/01/14 08:56:04;;;;;;;13.07;2.23;;;3.30;77.40;;;;;;5034540;28;20100;-76
2021/01/14 08:58:44;;;;;;;12.73;2.70;;;3.30;77.70;;;;;;5033999;28;20076;-76
2021/01/14 09:01:10;;;;;;;8.70;1.60;;;3.40;77.90;;;;;;5003820;28;20493;-76
2021/01/14 09:03:36;;;;;;;15.03;2.77;;;3.30;77.10;;;;;;5033056;28;20030;-77
2021/01/14 09:06:02;;;;;;;15.00;5.57;;;3.30;77.50;;;;;;5030001;28;20079;-79
2021/01/14 09:08:28;;;;;;;12.13;2.00;;;3.30;77.60;;;;;;5032686;28;20039;-75
2021/01/14 09:10:55;;;;;;;18.40;4.93;;;3.40;77.50;;;;;;5014999;28;20033;-76
2021/01/14 09:13:25;;;;;;;8.87;2.60;;;3.40;77.70;;;;;;5033873;28;20103;-75
2021/01/14 09:15:53;;;;;;;15.17;3.77;;;3.30;77.00;;;;;;5032811;28;20033;-75
2021/01/14 09:18:29;;;;;;;11.73;3.10;;;3.30;77.20;;;;;;5015945;28;20048;-76
2021/01/14 09:20:55;;;;;;;11.43;1.73;;;3.30;77.40;;;;;;5034186;28;20021;-77
2021/01/14 09:23:32;;;;;;;9.60;1.87;;;3.30;77.30;;;;;;5032442;28;20111;-76
2021/01/14 09:26:03;;;;;;;15.07;3.60;;;3.20;77.50;;;;;;5032881;28;20028;-74
2021/01/14 09:28:30;;;;;;;13.27;3.47;;;3.30;78.00;;;;;;5031912;28;20033;-78
2021/01/14 09:30:58;;;;;;;16.70;4.50;;;3.40;77.60;;;;;;5016068;28;20036;-75
2021/01/14 09:33:29;;;;;;;13.20;3.73;;;3.40;77.70;;;;;;5032200;28;20026;-77
2021/01/14 09:36:01;;;;;;;13.80;3.43;;;3.60;77.70;;;;;;5033410;28;20436;-76
2021/01/14 09:38:27;;;;;;;6.93;2.70;;;3.60;77.30;;;;;;5031959;28;20029;-75
2021/01/14 09:40:54;;;;;;;11.20;3.03;;;3.60;77.40;;;;;;5033203;28;20057;-76
2021/01/14 09:43:24;;;;;;;6.80;0.97;;;3.60;77.20;;;;;;5031866;28;20033;-75
2021/01/14 09:45:50;;;;;;;14.07;2.50;;;3.60;76.60;;;;;;5032200;28;20030;-76
2021/01/14 09:48:21;;;;;;;8.13;1.30;;;3.60;76.60;;;;;;5032749;28;20041;-74
2021/01/14 09:50:48;;;;;;;7.97;1.10;;;3.50;75.60;;;;;;5015072;28;20037;-76
2021/01/14 09:53:14;;;;;;;9.23;1.87;;;3.40;75.60;;;;;;5014931;28;20136;-76
2021/01/14 09:55:41;;;;;;;3.67;0.90;;;3.30;76.40;;;;;;5031633;28;20037;-75
2021/01/14 09:58:11;;;;;;;17.03;2.50;;;3.20;75.80;;;;;;5016923;28;20071;-75
2021/01/14 10:00:40;;;;;;;9.40;1.47;;;3.20;76.10;;;;;;5033744;28;20026;-75
2021/01/14 10:03:09;;;;;;;8.07;1.03;;;3.20;76.00;;;;;;5031675;28;20025;-74
2021/01/14 10:05:36;;;;;;;10.30;1.17;;;3.20;75.70;;;;;;5032833;28;20026;-78
2021/01/14 10:08:14;;;;;;;8.97;1.10;;;3.20;76.10;;;;;;5017719;28;20103;-75
2021/01/14 10:10:40;;;;;;;4.27;0.80;;;3.30;76.10;;;;;;5034160;28;20030;-76
2021/01/14 10:13:13;;;;;;;15.97;1.23;;;3.30;75.40;;;;;;5036579;28;20033;-78
2021/01/14 10:15:39;;;;;;;7.60;1.23;;;3.20;75.30;;;;;;5019407;28;20124;-77
2021/01/14 10:18:06;;;;;;;11.23;1.47;;;3.20;75.40;;;;;;5036045;28;20083;-76
2021/01/14 10:20:35;;;;;;;8.93;1.80;;;3.20;75.40;;;;;;5016987;28;20022;-77
2021/01/14 10:23:00;;;;;;;12.20;1.30;;;3.10;75.60;;;;;;5018201;28;20056;-76
2021/01/14 10:25:26;;;;;;;10.40;1.67;;;3.10;74.50;;;;;;5036570;28;20038;-75
2021/01/14 10:28:10;;;;;;;11.17;1.07;;;3.20;75.40;;;;;;5032472;28;20033;-78
2021/01/14 10:30:42;;;;;;;11.13;2.30;;;3.20;74.70;;;;;;5032293;28;20128;-76
2021/01/14 10:33:09;;;;;;;10.48;0.98;;;3.10;74.60;;;;;;4999378;28;20037;-76
2021/01/14 10:35:36;;;;;;;22.23;3.03;;;3.20;74.40;;;;;;5030918;28;20504;-75
2021/01/14 10:38:07;;;;;;;12.77;1.40;;;3.20;74.70;;;;;;5031165;28;20440;-75
2021/01/14 10:40:41;;;;;;;21.47;2.07;;;3.30;74.10;;;;;;5031386;28;20025;-76
2021/01/14 10:43:08;;;;;;;8.63;1.30;;;3.30;74.30;;;;;;5027041;28;20033;-76
2021/01/14 10:45:36;;;;;;;8.90;1.60;;;3.30;74.30;;;;;;4978413;28;20085;-76
2021/01/14 10:48:13;;;;;;;14.73;2.37;;;3.30;74.00;;;;;;5024059;28;20469;-75
2021/01/14 10:50:54;;;;;;;7.20;1.47;;;3.20;74.30;;;;;;5022977;28;20061;-76
2021/01/14 10:53:53;;;;;;;12.33;3.30;;;3.20;74.40;;;;;;5031452;28;20105;-80
2021/01/14 10:56:20;;;;;;;8.33;1.53;;;3.20;74.20;;;;;;5030118;28;20033;-79
2021/01/14 10:58:57;;;;;;;11.00;1.90;;;3.10;73.90;;;;;;5031656;28;20036;-75
2021/01/14 11:01:22;;;;;;;9.73;1.67;;;3.10;74.30;;;;;;5029961;28;20108;-76
2021/01/14 11:03:49;;;;;;;15.17;2.90;;;3.10;74.00;;;;;;5031582;28;20438;-76
2021/01/14 11:06:32;;;;;;;15.10;1.93;;;3.10;74.60;;;;;;5031672;28;20369;-77
2021/01/14 11:09:10;;;;;;;9.95;1.70;;;3.20;74.20;;;;;;5030916;28;20377;-76
2021/01/14 11:11:36;;;;;;;9.63;1.57;;;3.10;74.00;;;;;;5030248;28;20083;-75
2021/01/14 11:14:03;;;;;;;8.27;1.60;;;3.10;74.20;;;;;;5014328;28;20048;-75
2021/01/14 11:16:28;;;;;;;12.57;2.70;;;3.10;74.20;;;;;;5029917;28;20026;-75
2021/01/14 11:18:56;;;;;;;10.87;2.33;;;3.10;74.30;;;;;;5030349;28;20424;-74
2021/01/14 11:21:35;;;;;;;12.70;2.40;;;3.10;74.50;;;;;;5031603;28;20026;-78
2021/01/14 11:24:01;;;;;;;10.67;2.10;;;3.10;74.60;;;;;;5013451;28;20135;-76
2021/01/14 11:26:28;;;;;;;12.03;2.57;;;3.10;74.60;;;;;;5029481;28;20033;-76
2021/01/14 11:28:54;;;;;;;10.57;1.73;;;3.20;75.90;;;;;;5029351;28;20030;-75
2021/01/14 11:31:22;;;;;;;8.00;1.97;;;3.30;75.30;;;;;;5029517;28;20057;-75
2021/01/14 11:33:48;;;;;;;11.73;2.63;;;3.30;73.70;;;;;;5028844;28;20025;-74
2021/01/14 11:36:17;;;;;;;11.40;2.40;;;3.30;73.70;;;;;;5030332;28;20013;-75
2021/01/14 11:38:43;;;;;;;7.80;2.07;;;3.20;73.90;;;;;;5028916;28;20488;-74
2021/01/14 11:41:09;;;;;;;9.40;2.43;;;3.10;73.90;;;;;;5029175;28;20045;-74
2021/01/14 11:43:36;;;;;;;11.40;2.30;;;3.10;74.00;;;;;;5020479;28;20029;-74
2021/01/14 11:46:02;;;;;;;11.80;2.77;;;3.10;74.40;;;;;;5030832;28;20100;-75
2021/01/14 11:48:28;;;;;;;9.50;2.37;;;3.20;74.40;;;;;;5029743;28;20112;-77
2021/01/14 11:50:53;;;;;;;9.00;2.60;;;3.20;74.20;;;;;;5029263;28;20532;-75
2021/01/14 11:53:19;;;;;;;9.50;1.90;;;3.20;73.50;;;;;;4999659;28;20033;-76
2021/01/14 11:55:45;;;;;;;5.73;2.00;;;3.20;73.00;;;;;;5015391;28;20040;-75
2021/01/14 11:58:10;;;;;;;7.43;1.60;;;3.20;72.60;;;;;;5032655;28;20432;-75
2021/01/14 12:00:36;;;;;;;11.73;2.23;;;3.30;73.00;;;;;;5031737;28;20027;-75
2021/01/14 12:03:06;;;;;;;7.60;2.30;;;3.20;71.80;;;;;;5033000;28;20030;-75
2021/01/14 12:05:35;;;;;;;12.10;2.40;;;3.20;72.60;;;;;;5016154;28;20413;-75
2021/01/14 12:08:01;;;;;;;8.83;2.10;;;3.30;73.30;;;;;;5034231;28;20402;-76
2021/01/14 12:10:27;;;;;;;7.23;2.47;;;3.50;72.90;;;;;;5031688;28;20091;-81
2021/01/14 12:12:52;;;;;;;9.93;2.50;;;3.40;71.60;;;;;;5033115;28;20034;-74
2021/01/14 12:15:18;;;;;;;10.27;2.27;;;3.40;71.90;;;;;;5032282;28;20485;-77
2021/01/14 12:17:44;;;;;;;14.23;3.17;;;3.40;71.60;;;;;;5031347;28;20040;-76
2021/01/14 12:20:10;;;;;;;7.80;3.03;;;3.30;71.90;;;;;;5015811;28;20045;-75
2021/01/14 12:22:39;;;;;;;7.10;2.67;;;3.20;72.20;;;;;;5014807;28;20050;-75
2021/01/14 12:25:13;;;;;;;8.17;2.87;;;3.20;72.20;;;;;;5015858;28;20469;-75
2021/01/14 12:27:40;;;;;;;9.13;3.47;;;3.10;72.70;;;;;;5014877;28;20033;-75
2021/01/14 12:30:08;;;;;;;8.70;3.37;;;3.20;73.10;;;;;;5032085;28;20123;-74
2021/01/14 12:32:33;;;;;;;11.17;3.60;;;3.20;73.20;;;;;;5014930;28;20025;-75
2021/01/14 12:35:00;;;;;;;14.60;4.33;;;3.30;73.20;;;;;;5032224;28;20045;-74
2021/01/14 12:37:34;;;;;;;8.10;3.83;;;3.20;72.20;;;;;;5015828;28;20057;-74
2021/01/14 12:40:00;;;;;;;11.37;5.10;;;3.20;72.70;;;;;;5016022;28;20124;-74
2021/01/14 12:42:26;;;;;;;13.40;5.23;;;3.20;72.90;;;;;;5032151;28;20448;-75
2021/01/14 12:44:52;;;;;;;9.83;4.80;;;3.20;73.00;;;;;;5014873;28;20120;-73
2021/01/14 12:47:17;;;;;;;13.90;6.47;;;3.20;73.30;;;;;;5033583;28;20111;-74
2021/01/14 12:49:43;;;;;;;12.47;6.17;;;3.20;72.90;;;;;;5031321;28;20041;-75
2021/01/14 12:52:09;;;;;;;13.30;7.03;;;3.10;72.80;;;;;;5015475;28;20045;-75
2021/01/14 12:54:34;;;;;;;16.33;6.83;;;3.10;73.00;;;;;;5014761;28;20528;-80
2021/01/14 12:57:00;;;;;;;14.27;7.80;;;3.10;73.20;;;;;;5015220;28;20030;-75
2021/01/14 12:59:25;;;;;;;11.37;7.70;;;3.10;73.30;;;;;;5032561;28;20037;-75
2021/01/14 13:01:51;;;;;;;14.67;8.37;;;3.20;73.60;;;;;;5031386;28;20033;-75
2021/01/14 13:04:17;;;;;;;17.07;9.60;;;3.20;73.10;;;;;;5030083;28;20030;-74